Macau International Airport
VMMC : now visible

Airfield :











YOU CAN JOIN US ON...

 
LOGIN :

Register | Disclaimer

   EN    FR    IT 

 









Legend :    VFR   Marginal VFR   IFR   Intensive IFR   Very Intensive IFR
Visi :
Ceiling :
>= 8 km
>= 3000ft
5 to 8 km
1000 to 3000 ft
1500m to 5 km
500 to 1000 ft
800 to 1500m
200 to 500 ft
< 800m
< 200 ft
Symbols :   Thunderstorms  Fog  Heavy snow  Heavy precipitations  Wind > 20 kt







- Airport Elevation : 20 ft
- IATA code : MFM


VMMC - Macau International

CURRENT METAR :
  • 181500Z 19005KT CAVOK 29/25 Q0999 NOSIG

EXPIRED METARs :
  • 181430Z 23003KT 200V270 CAVOK 30/25 Q0999 NOSIG
  • 181400Z 27004KT 230V320 CAVOK 30/25 Q0999 NOSIG
  • 181330Z 23005KT 200V280 CAVOK 30/25 Q0999 NOSIG
  • 181300Z 26006KT CAVOK 30/25 Q0999 NOSIG
  • 181230Z 24007KT 170V260 CAVOK 30/24 Q0999 NOSIG

TAF TAF VMMC
Valid from the 18 at 12:00 until the 19 at 18:00 UTC


181100Z 1812/1918 VRB03KT 8000 FEW025
TEMPO 1812/1814 VRB15G25KT 2500 TSRA FEW008 SCT015CB
TEMPO 1821/1903 VRB15G25KT 2500 TSRA FEW008 SCT015CB
BECMG 1904/1906 22010KT
ZGZU FIR / Asia



MET'MAP, your aeronautical weather chart ! - Copyright ORBIFLY December 2007 - Disclaimer

ORBIFLY MET'MAP TEAM :

Programming & Development : Alexandra Zaïnal
Concept & Development : Baudouin d'Aumeries
Co-Development & Prog : Marc-Olivier Méhu
Technical & hardware support : Manuel Goepfert

Contact : metmap@orbifly.com




SOURCES & CREDITS :

   NOAA       Earth
Advisory